createdAt,value
2023-01-02T00:01:48.952Z,11.50
2023-01-02T00:11:37.894Z,12.70
2023-01-02T00:14:05.204Z,13.40
2023-01-02T00:26:21.319Z,11.00
2023-01-02T00:28:48.110Z,13.40
2023-01-02T00:33:43.756Z,11.10
2023-01-02T00:36:12.880Z,11.90
2023-01-02T00:38:40.912Z,11.90
2023-01-02T00:41:07.964Z,13.50
2023-01-02T00:48:37.933Z,11.00
2023-01-02T00:51:04.798Z,10.60
2023-01-02T00:55:59.067Z,12.90
2023-01-02T00:58:25.920Z,11.80
2023-01-02T01:08:15.205Z,10.70
2023-01-02T01:13:09.295Z,13.20
2023-01-02T01:18:03.600Z,11.80
2023-01-02T01:27:55.503Z,13.40
2023-01-02T01:35:16.960Z,12.70
2023-01-02T01:45:14.785Z,12.50
2023-01-02T01:47:50.255Z,12.30
2023-01-02T01:52:54.889Z,12.50
2023-01-02T01:55:31.032Z,12.40
2023-01-02T01:58:11.498Z,11.60
2023-01-02T02:00:40.624Z,12.40
2023-01-02T02:03:16.290Z,12.50
2023-01-02T02:05:45.065Z,12.70
2023-01-02T02:08:26.828Z,11.60
2023-01-02T02:10:55.744Z,11.90
2023-01-02T02:13:23.058Z,12.70
2023-01-02T02:16:11.672Z,13.10
2023-01-02T02:18:57.115Z,13.40
2023-01-02T02:21:55.944Z,12.60
2023-01-02T02:25:01.303Z,13.00
2023-01-02T02:27:42.937Z,12.90
2023-01-02T02:30:24.058Z,12.60
2023-01-02T02:33:07.745Z,12.50
2023-01-02T02:35:49.723Z,12.60
2023-01-02T02:38:48.137Z,13.60
2023-01-02T02:41:35.142Z,12.90
2023-01-02T02:44:15.446Z,12.70
2023-01-02T02:47:07.583Z,12.00
2023-01-02T02:49:58.823Z,11.50
2023-01-02T02:52:45.103Z,11.50
2023-01-02T02:55:22.015Z,13.70
2023-01-02T02:57:51.693Z,12.80
2023-01-02T03:00:22.377Z,12.20
2023-01-02T03:02:50.061Z,11.70
2023-01-02T03:05:35.154Z,12.90
2023-01-02T03:08:21.810Z,11.90
2023-01-02T03:11:00.811Z,12.90
2023-01-02T03:13:54.943Z,11.60
2023-01-02T03:16:34.209Z,13.00
2023-01-02T03:19:09.025Z,14.30
2023-01-02T03:21:43.601Z,12.80
2023-01-02T03:24:13.846Z,12.80
2023-01-02T03:26:44.482Z,13.00
2023-01-02T03:29:22.081Z,13.00
2023-01-02T03:31:53.118Z,13.70
2023-01-02T03:34:24.124Z,12.40
2023-01-02T03:36:55.959Z,13.60
2023-01-02T03:39:29.159Z,13.10
2023-01-02T03:42:29.250Z,13.10
2023-01-02T03:45:05.807Z,11.90
2023-01-02T03:47:42.118Z,13.10
2023-01-02T03:50:20.066Z,14.40
2023-01-02T03:52:46.963Z,13.50
2023-01-02T03:58:07.382Z,14.40
2023-01-02T04:00:58.227Z,13.20
2023-01-02T04:03:31.678Z,13.10
2023-01-02T04:06:13.105Z,14.50
2023-01-02T04:08:52.142Z,14.20
2023-01-02T04:11:20.993Z,13.10
2023-01-02T04:13:53.402Z,13.00
2023-01-02T04:16:23.737Z,11.90
2023-01-02T04:19:03.658Z,14.50
2023-01-02T04:21:34.412Z,12.80
2023-01-02T04:24:13.397Z,13.10
2023-01-02T04:26:50.211Z,12.30
2023-01-02T04:29:17.484Z,11.90
2023-01-02T04:31:52.456Z,12.80
2023-01-02T04:34:20.964Z,13.70
2023-01-02T04:41:43.242Z,12.40
2023-01-02T04:44:10.050Z,13.60
2023-01-02T04:51:31.587Z,12.10
2023-01-02T04:58:53.272Z,14.20
2023-01-02T05:01:21.599Z,14.40
2023-01-02T05:03:52.637Z,13.60
2023-01-02T05:08:47.057Z,12.60
2023-01-02T05:11:19.227Z,11.70
2023-01-02T05:21:29.746Z,13.00
2023-01-02T05:23:58.202Z,13.40
2023-01-02T05:26:25.122Z,11.90
2023-01-02T05:28:55.270Z,11.80
2023-01-02T05:31:22.412Z,11.70
2023-01-02T05:33:53.624Z,13.30
2023-01-02T05:36:22.042Z,11.80
2023-01-02T05:41:16.665Z,12.40
2023-01-02T05:43:43.506Z,13.80
2023-01-02T05:46:12.906Z,12.80
2023-01-02T05:48:40.448Z,12.50
2023-01-02T05:51:09.457Z,13.40
2023-01-02T05:56:15.950Z,11.50
2023-01-02T05:58:45.101Z,11.70
2023-01-02T06:01:14.713Z,12.20
2023-01-02T06:03:48.341Z,11.40
2023-01-02T06:13:38.877Z,11.20
2023-01-02T06:16:07.509Z,12.50
2023-01-02T06:18:35.775Z,11.00
2023-01-02T06:21:08.397Z,11.00
2023-01-02T06:23:35.689Z,12.30
2023-01-02T06:26:21.484Z,9.50
2023-01-02T06:28:53.747Z,10.80
2023-01-02T06:31:23.322Z,10.80
2023-01-02T06:33:58.654Z,10.80
2023-01-02T06:36:26.805Z,12.00
2023-01-02T06:43:49.952Z,10.80
2023-01-02T06:46:19.076Z,10.60
2023-01-02T06:48:46.501Z,10.70
2023-01-02T06:51:23.527Z,10.70
2023-01-02T06:53:50.847Z,9.60
2023-01-02T06:56:19.259Z,11.10
2023-01-02T06:58:46.795Z,10.60
2023-01-02T07:01:19.271Z,11.20
2023-01-02T07:03:46.395Z,11.90
2023-01-02T07:06:15.984Z,10.60
2023-01-02T07:08:43.623Z,9.20
2023-01-02T07:11:19.969Z,9.60
2023-01-02T07:13:49.252Z,10.60
2023-01-02T07:16:18.263Z,9.20
2023-01-02T07:21:14.035Z,10.30
2023-01-02T07:23:41.544Z,9.00
2023-01-02T07:26:09.309Z,10.30
2023-01-02T07:28:37.445Z,10.30
2023-01-02T07:31:11.429Z,10.30
2023-01-02T07:36:08.017Z,9.30
2023-01-02T07:43:32.672Z,9.00
2023-01-02T07:46:04.154Z,10.90
2023-01-02T07:51:03.538Z,10.10
2023-01-02T07:55:58.770Z,10.20
2023-01-02T08:13:17.634Z,8.90
2023-01-02T08:15:44.498Z,11.50
2023-01-02T08:18:11.943Z,8.80
2023-01-02T08:23:06.443Z,9.00
2023-01-02T08:25:33.261Z,11.00
2023-01-02T08:30:27.318Z,11.30
2023-01-02T08:32:54.162Z,10.20
2023-01-02T08:40:33.199Z,10.90
2023-01-02T08:45:27.279Z,11.00
2023-01-02T08:55:16.383Z,11.10
2023-01-02T09:00:11.586Z,11.10
2023-01-02T09:12:28.298Z,10.80
2023-01-02T09:17:22.518Z,10.20
2023-01-02T09:34:33.471Z,10.00
2023-01-02T09:42:01.214Z,10.30
2023-01-02T09:44:31.228Z,11.20
2023-01-02T09:47:12.070Z,11.60
2023-01-02T09:50:00.702Z,11.40
2023-01-02T09:52:44.294Z,10.20
2023-01-02T09:55:31.485Z,10.20
2023-01-02T09:58:20.615Z,10.30
2023-01-02T10:00:50.470Z,8.90
2023-01-02T10:03:34.995Z,11.00
2023-01-02T10:08:41.330Z,10.90
2023-01-02T10:11:40.968Z,11.80
2023-01-02T10:14:26.302Z,10.50
2023-01-02T10:17:00.805Z,10.70
2023-01-02T10:19:45.421Z,9.50
2023-01-02T10:22:19.504Z,9.40
2023-01-02T10:25:07.096Z,11.00
2023-01-02T10:27:45.905Z,11.80
2023-01-02T10:30:27.610Z,12.00
2023-01-02T10:33:12.320Z,11.10
2023-01-02T10:35:47.581Z,11.10
2023-01-02T10:38:18.675Z,11.20
2023-01-02T10:40:47.798Z,11.30
2023-01-02T10:43:15.613Z,11.50
2023-01-02T10:45:43.252Z,11.50
2023-01-02T10:48:11.279Z,12.70
2023-01-02T10:50:51.227Z,11.00
2023-01-02T10:53:30.970Z,11.30
2023-01-02T10:56:15.755Z,11.30
2023-01-02T10:58:50.957Z,11.30
2023-01-02T11:01:20.244Z,11.30
2023-01-02T11:03:54.146Z,11.40
2023-01-02T11:06:29.117Z,11.30
2023-01-02T11:09:03.817Z,11.20
2023-01-02T11:11:32.358Z,10.00
2023-01-02T11:14:07.496Z,12.00
2023-01-02T11:16:39.252Z,10.30
2023-01-02T11:21:40.703Z,11.70
2023-01-02T11:24:15.730Z,12.80
2023-01-02T11:26:45.227Z,12.20
2023-01-02T11:29:23.137Z,11.70
2023-01-02T11:31:57.628Z,13.10
2023-01-02T11:34:34.162Z,12.00
2023-01-02T11:37:05.522Z,11.50
2023-01-02T11:39:34.119Z,11.50
2023-01-02T11:42:41.751Z,11.30
2023-01-02T11:45:15.223Z,10.10
2023-01-02T11:50:24.133Z,11.60
2023-01-02T11:53:18.757Z,11.30
2023-01-02T11:56:14.086Z,10.50
2023-01-02T11:58:52.260Z,10.20
2023-01-02T12:01:39.480Z,11.30
2023-01-02T12:07:05.930Z,11.20
2023-01-02T12:09:42.209Z,12.30
2023-01-02T12:15:04.859Z,11.20
2023-01-02T12:17:57.941Z,11.20
2023-01-02T12:20:31.389Z,11.10
2023-01-02T12:23:16.951Z,10.00
2023-01-02T12:25:57.679Z,9.90
2023-01-02T12:28:42.937Z,12.40
2023-01-02T12:33:51.458Z,10.40
2023-01-02T12:36:34.300Z,11.90
2023-01-02T12:39:32.164Z,11.10
2023-01-02T12:49:44.170Z,12.20
2023-01-02T12:52:29.835Z,11.10
2023-01-02T12:55:18.551Z,11.10
2023-01-02T12:57:58.428Z,9.90
2023-01-02T13:00:45.877Z,11.10
2023-01-02T13:03:39.773Z,10.90
2023-01-02T13:06:43.515Z,10.40
2023-01-02T13:09:23.096Z,11.00
2023-01-02T13:11:59.220Z,11.00
2023-01-02T13:14:39.067Z,11.00
2023-01-02T13:17:20.528Z,9.60
2023-01-02T13:20:13.815Z,10.70
2023-01-02T13:25:17.414Z,11.00
2023-01-02T13:27:45.922Z,10.80
2023-01-02T13:30:34.415Z,10.70
2023-01-02T13:33:03.803Z,11.80
2023-01-02T13:35:37.786Z,10.70
2023-01-02T13:38:07.069Z,10.70
2023-01-02T13:40:34.885Z,10.20
2023-01-02T13:43:08.401Z,10.50
2023-01-02T13:45:46.505Z,11.40
2023-01-02T13:48:38.196Z,10.70
2023-01-02T13:51:13.701Z,10.50
2023-01-02T13:53:43.486Z,9.80
2023-01-02T13:56:18.835Z,9.60
2023-01-02T13:59:43.065Z,10.40
2023-01-02T14:01:59.327Z,10.70
2023-01-02T14:04:30.100Z,11.80
2023-01-02T14:07:25.976Z,10.60
2023-01-02T14:10:14.027Z,9.40
2023-01-02T14:12:58.238Z,11.30
2023-01-02T14:15:26.813Z,10.50
2023-01-02T14:17:59.940Z,10.60
2023-01-02T14:20:28.448Z,10.40
2023-01-02T14:23:10.086Z,10.60
2023-01-02T14:25:49.568Z,11.20
2023-01-02T14:28:31.353Z,9.40
2023-01-02T14:30:59.053Z,10.40
2023-01-02T14:33:34.132Z,10.50
2023-01-02T14:36:09.698Z,10.40
2023-01-02T14:38:57.038Z,9.20
2023-01-02T14:42:08.908Z,10.30
2023-01-02T14:44:41.965Z,10.30
2023-01-02T14:47:35.746Z,9.50
2023-01-02T14:50:04.417Z,10.40
2023-01-02T14:52:37.550Z,10.30
2023-01-02T14:55:23.692Z,10.40
2023-01-02T14:57:53.618Z,10.40
2023-01-02T15:00:29.511Z,10.30
2023-01-02T15:03:12.579Z,10.30
2023-01-02T15:05:48.016Z,10.30
2023-01-02T15:08:18.684Z,11.40
2023-01-02T15:10:58.080Z,11.20
2023-01-02T15:13:28.207Z,10.30
2023-01-02T15:15:59.920Z,10.20
2023-01-02T15:18:33.612Z,10.20
2023-01-02T15:21:09.325Z,10.20
2023-01-02T15:23:41.969Z,10.20
2023-01-02T15:26:31.370Z,11.30
2023-01-02T15:29:26.547Z,10.10
2023-01-02T15:31:56.219Z,10.00
2023-01-02T15:34:31.364Z,10.10
2023-01-02T15:37:02.896Z,11.20
2023-01-02T15:39:41.361Z,10.00
2023-01-02T15:42:34.029Z,9.60
2023-01-02T15:47:50.877Z,9.70
2023-01-02T15:50:22.071Z,9.80
2023-01-02T15:53:02.647Z,8.60
2023-01-02T15:55:40.554Z,9.90
2023-01-02T15:58:16.611Z,9.60
2023-01-02T16:00:45.265Z,9.80
2023-01-02T16:04:04.037Z,9.80
2023-01-02T16:06:41.298Z,9.70
2023-01-02T16:09:18.734Z,9.30
2023-01-02T16:11:49.561Z,9.80
2023-01-02T16:14:20.541Z,10.90
2023-01-02T16:16:59.862Z,9.70
2023-01-02T16:19:54.663Z,9.70
2023-01-02T16:22:30.511Z,9.70
2023-01-02T16:25:17.606Z,9.60
2023-01-02T16:27:53.873Z,9.60
2023-01-02T16:30:41.374Z,10.90
2023-01-02T16:33:24.765Z,9.50
2023-01-02T16:36:07.251Z,9.60
2023-01-02T16:38:56.012Z,9.60
2023-01-02T16:41:36.855Z,9.50
2023-01-02T16:44:12.323Z,9.50
2023-01-02T16:46:43.948Z,9.50
2023-01-02T16:49:22.373Z,9.60
2023-01-02T16:51:53.152Z,8.80
2023-01-02T16:56:48.819Z,10.40
2023-01-02T17:04:14.818Z,9.30
2023-01-02T17:06:41.617Z,10.30
2023-01-02T17:11:37.479Z,9.40
2023-01-02T17:18:59.481Z,9.50
2023-01-02T17:21:30.924Z,8.70
2023-01-02T17:33:52.992Z,10.30
2023-01-02T17:38:47.325Z,7.60
2023-01-02T17:51:44.449Z,7.40
2023-01-02T17:59:06.877Z,9.70
2023-01-02T18:13:53.959Z,7.90
2023-01-02T18:16:27.048Z,8.00
2023-01-02T18:21:24.076Z,8.00
2023-01-02T18:23:56.198Z,7.60
2023-01-02T18:28:51.959Z,8.00
2023-01-02T18:36:20.982Z,8.10
2023-01-02T18:38:52.294Z,7.90
2023-01-02T18:41:22.310Z,9.30
2023-01-02T18:43:54.000Z,9.30
2023-01-02T18:47:04.611Z,6.70
2023-01-02T18:49:27.095Z,9.20
2023-01-02T18:52:25.143Z,7.90
2023-01-02T18:55:00.198Z,6.90
2023-01-02T18:57:31.956Z,5.00
2023-01-02T19:00:08.001Z,7.90
2023-01-02T19:02:53.847Z,7.70
2023-01-02T19:05:32.835Z,7.10
2023-01-02T19:08:12.674Z,7.70
2023-01-02T19:10:46.135Z,7.60
2023-01-02T19:13:15.948Z,7.50
2023-01-02T19:15:45.555Z,7.50
2023-01-02T19:18:15.537Z,7.50
2023-01-02T19:20:43.853Z,7.60
2023-01-02T19:23:35.308Z,6.60
2023-01-02T19:26:24.077Z,7.30
2023-01-02T19:31:18.248Z,6.00
2023-01-02T19:33:52.595Z,6.30
2023-01-02T19:36:25.003Z,5.90
2023-01-02T19:51:32.177Z,7.10
2023-01-02T20:01:27.876Z,5.70
2023-01-02T20:06:22.060Z,6.20
2023-01-02T20:26:23.599Z,5.60
2023-01-02T20:41:08.302Z,6.20
2023-01-02T20:58:21.630Z,5.30
2023-01-02T21:00:48.531Z,6.50
2023-01-02T21:10:37.616Z,5.90
2023-01-02T21:15:54.805Z,7.30
2023-01-02T21:18:29.751Z,5.20
2023-01-02T21:21:11.690Z,6.10
2023-01-02T21:23:40.089Z,5.90
2023-01-02T21:26:09.272Z,6.00
2023-01-02T21:28:37.179Z,5.80
2023-01-02T21:31:05.024Z,5.80
2023-01-02T21:36:01.005Z,5.60
2023-01-02T21:41:16.362Z,4.50
2023-01-02T21:43:43.543Z,6.50
2023-01-02T21:51:06.140Z,5.80
2023-01-02T21:58:27.983Z,5.20
2023-01-02T22:05:50.510Z,4.60
2023-01-02T22:30:31.571Z,6.50
2023-01-02T22:40:24.278Z,4.50
2023-01-02T22:43:00.880Z,5.40
2023-01-02T22:45:33.216Z,5.70
2023-01-02T22:48:04.143Z,5.30
2023-01-02T22:50:43.745Z,5.40
2023-01-02T22:53:21.213Z,5.30
2023-01-02T23:00:44.694Z,6.50
2023-01-02T23:03:16.096Z,6.70
2023-01-02T23:05:43.103Z,5.10
2023-01-02T23:15:32.449Z,6.40
2023-01-02T23:20:45.888Z,3.70
2023-01-02T23:23:12.762Z,4.70
2023-01-02T23:25:42.314Z,4.90
2023-01-02T23:30:43.444Z,3.60
2023-01-02T23:38:05.001Z,3.70
2023-01-02T23:43:01.424Z,3.60
2023-01-02T23:57:44.596Z,4.60
